Time;durP1;ratioP1;P1;durP2;ratioP2;P2;SDS_P1;SDS_P2;PMS_P1;PMS_P2;Temp;Humidity;BMP_temperature;BMP_pressure;BME280_temperature;BME280_humidity;BME280_pressure;Samples;Min_cycle;Max_cycle;Signal;HPM_P1;HPM_P2
2022/12/29 00:01:15;;;;;;;14.50;8.70;;;10.40;99.90;;;;;;5053210;28;20107;-87
2022/12/29 00:03:40;;;;;;;13.02;8.77;;;10.40;99.90;;;;;;5053519;28;20131;-86
2022/12/29 00:06:06;;;;;;;13.55;8.25;;;10.40;99.90;;;;;;5051905;28;20064;-86
2022/12/29 00:08:41;;;;;;;11.73;7.50;;;10.50;99.90;;;;;;5053594;28;20024;-86
2022/12/29 00:11:11;;;;;;;10.93;9.10;;;10.50;99.90;;;;;;5052834;28;20147;-87
2022/12/29 00:16:22;;;;;;;12.55;8.27;;;10.60;99.90;;;;;;5053911;28;20157;-86
2022/12/29 00:18:48;;;;;;;10.98;8.95;;;10.60;99.90;;;;;;5053139;28;20104;-87
2022/12/29 00:35:09;;;;;;;11.05;7.80;;;10.70;99.90;;;;;;5052688;28;20079;-86
2022/12/29 00:45:53;;;;;;;6.75;4.90;;;10.70;99.90;;;;;;5052775;28;20419;-86
2022/12/29 00:49:29;;;;;;;13.80;7.38;;;10.70;99.90;;;;;;5052269;28;20025;-86
2022/12/29 00:51:05;;;;;;;10.27;6.90;;;10.60;99.90;;;;;;5051952;28;20025;-86
2022/12/29 00:53:31;;;;;;;11.02;6.55;;;10.60;99.90;;;;;;5052215;28;20017;-86
2022/12/29 00:55:57;;;;;;;10.07;6.38;;;10.70;99.90;;;;;;5052034;28;20039;-86
2022/12/29 00:58:22;;;;;;;12.15;6.68;;;10.70;99.90;;;;;;5052440;28;20021;-86
2022/12/29 01:00:48;;;;;;;11.15;7.13;;;10.70;99.90;;;;;;5052180;28;20057;-86
2022/12/29 01:03:14;;;;;;;11.68;7.07;;;10.70;99.90;;;;;;5052040;28;20020;-86
2022/12/29 01:05:39;;;;;;;12.25;6.50;;;10.80;99.90;;;;;;5052279;28;20036;-86
2022/12/29 01:08:05;;;;;;;10.80;6.25;;;10.80;99.90;;;;;;5050525;28;20029;-86
2022/12/29 01:10:30;;;;;;;8.82;5.78;;;10.70;99.90;;;;;;5051286;28;20478;-86
2022/12/29 01:12:56;;;;;;;7.68;5.80;;;10.70;99.90;;;;;;5049881;28;20425;-86
2022/12/29 01:15:22;;;;;;;9.75;5.63;;;10.70;99.90;;;;;;5052314;28;20029;-86
2022/12/29 01:17:47;;;;;;;6.80;5.60;;;10.70;99.90;;;;;;5052009;28;20029;-86
2022/12/29 01:20:13;;;;;;;9.95;6.13;;;10.80;99.90;;;;;;5051975;28;20048;-86
2022/12/29 01:22:39;;;;;;;8.88;6.05;;;10.80;99.90;;;;;;5051592;28;20082;-86
2022/12/29 01:25:06;;;;;;;11.40;5.82;;;10.80;99.90;;;;;;5051291;28;20524;-87
2022/12/29 01:27:31;;;;;;;7.60;5.57;;;10.80;99.90;;;;;;5051676;28;20032;-86
2022/12/29 01:29:57;;;;;;;8.15;5.50;;;10.80;99.90;;;;;;5052087;28;20033;-86
2022/12/29 01:32:23;;;;;;;8.38;4.80;;;10.80;99.90;;;;;;5040720;28;20021;-86
2022/12/29 01:34:48;;;;;;;8.82;5.28;;;10.80;99.90;;;;;;5045589;28;20114;-87
2022/12/29 01:37:14;;;;;;;6.88;4.88;;;10.80;99.90;;;;;;5050341;28;20481;-87
2022/12/29 01:39:40;;;;;;;8.10;3.80;;;10.90;99.90;;;;;;5052003;28;20021;-86
2022/12/29 01:42:09;;;;;;;7.28;5.45;;;10.80;99.90;;;;;;5050375;28;20065;-86
2022/12/29 01:44:56;;;;;;;5.47;4.55;;;10.80;99.90;;;;;;5051688;28;20041;-87
2022/12/29 01:47:28;;;;;;;6.70;4.88;;;10.80;99.90;;;;;;5051593;28;20489;-87
2022/12/29 01:49:56;;;;;;;8.30;4.90;;;10.80;99.90;;;;;;5052235;28;20394;-87
2022/12/29 01:52:24;;;;;;;6.93;4.70;;;10.80;99.90;;;;;;5050893;28;20053;-86
2022/12/29 01:54:53;;;;;;;10.02;5.20;;;10.90;99.90;;;;;;5050626;28;20456;-86
2022/12/29 01:57:25;;;;;;;8.25;4.72;;;10.90;99.90;;;;;;5051531;28;20036;-86
2022/12/29 02:00:00;;;;;;;8.75;5.00;;;10.90;99.90;;;;;;5051604;28;20493;-86
2022/12/29 02:02:26;;;;;;;6.18;5.07;;;10.90;99.90;;;;;;5051479;28;20048;-86
2022/12/29 02:04:53;;;;;;;7.32;4.90;;;10.80;99.90;;;;;;5051771;28;20037;-86
2022/12/29 02:07:22;;;;;;;8.75;5.40;;;10.70;99.90;;;;;;5051014;28;20033;-86
2022/12/29 02:09:50;;;;;;;7.43;5.20;;;10.70;99.90;;;;;;5051510;28;20039;-86
2022/12/29 02:12:21;;;;;;;8.73;5.47;;;10.70;99.90;;;;;;5050083;28;20024;-86
2022/12/29 02:14:49;;;;;;;8.85;5.20;;;10.70;99.90;;;;;;5051539;28;20057;-86
2022/12/29 02:17:38;;;;;;;9.43;5.65;;;10.70;99.90;;;;;;5051230;28;20025;-86
2022/12/29 02:20:32;;;;;;;7.78;6.18;;;10.70;99.90;;;;;;5009483;28;20072;-87
2022/12/29 02:23:06;;;;;;;8.68;5.85;;;10.70;99.90;;;;;;4992945;28;20030;-86
2022/12/29 02:26:09;;;;;;;7.70;5.80;;;10.60;99.90;;;;;;5010874;28;20080;-86
2022/12/29 02:29:06;;;;;;;8.73;5.85;;;10.60;99.90;;;;;;5013337;28;20029;-87
2022/12/29 02:31:35;;;;;;;6.68;5.47;;;10.60;99.90;;;;;;5013316;28;20037;-86
2022/12/29 02:34:08;;;;;;;7.88;5.85;;;10.70;99.90;;;;;;5012775;28;20038;-86
2022/12/29 02:36:43;;;;;;;10.90;5.72;;;10.70;99.90;;;;;;5013099;28;20117;-87
2022/12/29 02:39:15;;;;;;;9.00;5.80;;;10.60;99.90;;;;;;5012965;28;20146;-86
2022/12/29 02:41:54;;;;;;;9.27;6.50;;;10.70;99.90;;;;;;5012839;28;20609;-86
2022/12/29 02:44:26;;;;;;;11.20;6.03;;;10.70;99.90;;;;;;4996381;28;20048;-86
2022/12/29 02:47:11;;;;;;;8.15;5.85;;;10.60;99.90;;;;;;5012901;28;20034;-86
2022/12/29 02:49:53;;;;;;;8.07;5.22;;;10.60;99.90;;;;;;5013192;28;20069;-86
2022/12/29 02:52:31;;;;;;;7.55;5.32;;;10.60;99.90;;;;;;5012918;28;20026;-86
2022/12/29 02:54:59;;;;;;;9.02;5.90;;;10.70;99.90;;;;;;5013044;28;20073;-86
2022/12/29 02:57:25;;;;;;;9.77;5.65;;;10.60;99.90;;;;;;5039386;28;20449;-87
2022/12/29 03:00:03;;;;;;;8.73;5.68;;;10.50;99.90;;;;;;5054699;28;20041;-86
2022/12/29 03:02:54;;;;;;;8.85;5.78;;;10.40;99.90;;;;;;5054739;28;20021;-86
2022/12/29 03:05:41;;;;;;;10.18;5.65;;;10.40;99.90;;;;;;5053301;28;20047;-86
2022/12/29 03:08:18;;;;;;;7.47;5.50;;;10.30;99.90;;;;;;5054497;28;20078;-87
2022/12/29 03:10:57;;;;;;;9.45;4.82;;;10.30;99.90;;;;;;5054648;28;20029;-86
2022/12/29 03:16:31;;;;;;;10.48;5.00;;;10.20;99.90;;;;;;5054854;28;20401;-86
2022/12/29 03:19:10;;;;;;;8.10;5.00;;;10.30;99.90;;;;;;5052703;28;20025;-86
2022/12/29 03:24:44;;;;;;;7.05;5.38;;;10.30;99.90;;;;;;5054455;28;20060;-86
2022/12/29 03:27:15;;;;;;;7.30;5.13;;;10.30;99.90;;;;;;5053937;28;20021;-86
2022/12/29 03:29:46;;;;;;;9.30;5.47;;;10.30;99.90;;;;;;5053805;28;20036;-86
2022/12/29 03:32:13;;;;;;;8.38;5.60;;;10.30;99.90;;;;;;5053729;28;20028;-86
2022/12/29 03:34:39;;;;;;;10.50;5.55;;;10.30;99.90;;;;;;5046651;28;20428;-86
2022/12/29 03:37:10;;;;;;;6.78;4.95;;;10.30;99.90;;;;;;5033420;28;20022;-86
2022/12/29 03:39:36;;;;;;;6.68;4.40;;;10.30;99.90;;;;;;5033889;28;20021;-86
2022/12/29 03:42:07;;;;;;;6.97;4.53;;;10.30;99.90;;;;;;5034075;28;20025;-86
2022/12/29 03:44:42;;;;;;;6.50;4.90;;;10.30;99.90;;;;;;5033620;28;20056;-86
2022/12/29 03:47:09;;;;;;;9.00;5.22;;;10.40;99.90;;;;;;5032020;28;20048;-86
2022/12/29 03:49:35;;;;;;;6.57;4.45;;;10.40;99.90;;;;;;5033958;28;20028;-86
2022/12/29 03:52:00;;;;;;;8.13;4.60;;;10.50;99.90;;;;;;5033794;28;20025;-86
2022/12/29 03:54:26;;;;;;;7.88;4.50;;;10.50;99.90;;;;;;5032063;28;20367;-86
2022/12/29 03:56:52;;;;;;;8.48;4.30;;;10.60;99.90;;;;;;5033884;28;20394;-86
2022/12/29 03:59:17;;;;;;;7.05;4.55;;;10.60;99.90;;;;;;5033200;28;20026;-86
2022/12/29 04:01:43;;;;;;;6.10;3.90;;;10.60;99.90;;;;;;5033074;28;20108;-86
2022/12/29 04:04:09;;;;;;;5.95;4.00;;;10.60;99.90;;;;;;5033277;28;20486;-86
2022/12/29 04:06:35;;;;;;;7.20;4.10;;;10.70;99.90;;;;;;5033126;28;20041;-86
2022/12/29 04:09:01;;;;;;;7.57;4.65;;;10.70;99.90;;;;;;5033772;28;20063;-86
2022/12/29 04:11:26;;;;;;;6.10;4.00;;;10.70;99.90;;;;;;5033545;28;20047;-86
2022/12/29 04:13:52;;;;;;;6.53;4.35;;;10.70;99.90;;;;;;5033072;28;20402;-86
2022/12/29 04:16:17;;;;;;;7.32;4.35;;;10.70;99.90;;;;;;5032897;28;20525;-86
2022/12/29 04:18:43;;;;;;;7.90;4.30;;;10.70;99.90;;;;;;5033378;28;20026;-86
2022/12/29 04:21:09;;;;;;;5.63;3.90;;;10.70;99.90;;;;;;5033246;28;20040;-86
2022/12/29 04:23:36;;;;;;;7.13;4.20;;;10.70;99.90;;;;;;5032668;28;20030;-86
2022/12/29 04:26:03;;;;;;;7.40;3.97;;;10.70;99.90;;;;;;5032449;28;20025;-86
2022/12/29 04:28:28;;;;;;;8.55;4.60;;;10.70;99.90;;;;;;5033153;28;20022;-86
2022/12/29 04:30:55;;;;;;;5.18;3.88;;;10.70;99.90;;;;;;5032296;28;20032;-86
2022/12/29 04:33:21;;;;;;;10.45;4.47;;;10.70;99.90;;;;;;5034219;28;20057;-86
2022/12/29 04:35:47;;;;;;;5.97;4.28;;;10.70;99.90;;;;;;5052621;28;20503;-87
2022/12/29 04:38:13;;;;;;;6.72;3.80;;;10.70;99.90;;;;;;5051904;28;20432;-87
2022/12/29 04:40:41;;;;;;;7.30;4.05;;;10.70;99.90;;;;;;5052614;28;20029;-87
2022/12/29 04:43:07;;;;;;;6.25;3.97;;;10.70;99.90;;;;;;5052334;28;20021;-87
2022/12/29 04:45:32;;;;;;;7.30;4.03;;;10.70;99.90;;;;;;5052300;28;20611;-86
2022/12/29 04:47:58;;;;;;;5.90;4.20;;;10.80;99.90;;;;;;5050335;28;20124;-87
2022/12/29 04:50:23;;;;;;;9.45;4.43;;;10.80;99.90;;;;;;5050964;28;20082;-86
2022/12/29 04:52:49;;;;;;;7.70;4.15;;;10.80;99.90;;;;;;5052683;28;20038;-86
2022/12/29 04:55:15;;;;;;;8.13;4.00;;;10.90;99.90;;;;;;5052132;28;20113;-86
2022/12/29 04:57:41;;;;;;;6.72;4.20;;;10.90;99.90;;;;;;5052570;28;20035;-87
2022/12/29 05:00:09;;;;;;;8.05;3.80;;;10.90;99.90;;;;;;5050992;28;20029;-87
2022/12/29 05:02:35;;;;;;;6.78;3.60;;;10.90;99.90;;;;;;5052292;28;20162;-86
2022/12/29 05:05:01;;;;;;;7.20;3.88;;;11.00;99.90;;;;;;5051720;28;20028;-87
2022/12/29 05:07:27;;;;;;;5.82;3.85;;;11.00;99.90;;;;;;5052442;28;20055;-87
2022/12/29 05:09:52;;;;;;;6.05;3.60;;;10.90;99.90;;;;;;5052310;28;20053;-86
2022/12/29 05:12:18;;;;;;;7.13;3.50;;;10.90;99.90;;;;;;5052221;28;20059;-86
2022/12/29 05:14:44;;;;;;;5.70;3.65;;;10.90;99.90;;;;;;5052064;28;20048;-86
2022/12/29 05:17:09;;;;;;;5.28;3.63;;;10.90;99.90;;;;;;5051548;28;20191;-87
2022/12/29 05:19:35;;;;;;;5.25;3.40;;;10.90;99.90;;;;;;5052218;28;20028;-87
2022/12/29 05:22:01;;;;;;;5.18;3.38;;;10.90;99.90;;;;;;5052029;28;20358;-86
2022/12/29 05:24:26;;;;;;;6.13;3.60;;;10.90;99.90;;;;;;5051949;28;20128;-87
2022/12/29 05:26:52;;;;;;;6.30;3.20;;;10.80;99.90;;;;;;5051921;28;20119;-86
2022/12/29 05:29:18;;;;;;;7.47;3.38;;;10.90;99.90;;;;;;5051717;28;20491;-86
2022/12/29 05:31:43;;;;;;;3.70;3.22;;;10.90;99.90;;;;;;5051240;28;20032;-87
2022/12/29 05:34:11;;;;;;;5.60;3.13;;;10.90;99.90;;;;;;5051895;28;20025;-87
2022/12/29 05:36:37;;;;;;;6.22;3.35;;;10.90;99.90;;;;;;5051614;28;20037;-86
2022/12/29 05:39:03;;;;;;;5.55;3.38;;;10.90;99.90;;;;;;5051916;28;20436;-87
2022/12/29 05:41:28;;;;;;;4.05;3.03;;;11.00;99.90;;;;;;5052032;28;20024;-86
2022/12/29 05:43:54;;;;;;;3.83;3.10;;;11.00;99.90;;;;;;5051058;28;20059;-87
2022/12/29 05:46:20;;;;;;;5.03;3.17;;;10.90;99.90;;;;;;5051518;28;20041;-86
2022/12/29 05:48:45;;;;;;;7.25;3.78;;;11.00;99.90;;;;;;5051642;28;20036;-86
2022/12/29 05:51:11;;;;;;;5.95;3.20;;;11.00;99.90;;;;;;5051659;28;20029;-86
2022/12/29 05:53:37;;;;;;;4.10;3.13;;;11.00;99.90;;;;;;5051465;28;20144;-87
2022/12/29 05:56:02;;;;;;;4.85;3.03;;;11.00;99.90;;;;;;5051892;28;20466;-86
2022/12/29 05:58:28;;;;;;;4.93;3.03;;;11.00;99.90;;;;;;5051511;28;20083;-86
2022/12/29 06:00:54;;;;;;;6.15;3.10;;;10.90;99.90;;;;;;5055764;28;20025;-86
2022/12/29 06:03:19;;;;;;;4.75;3.15;;;10.90;99.90;;;;;;5055431;28;20056;-86
2022/12/29 06:05:46;;;;;;;6.03;3.33;;;10.90;99.90;;;;;;5055737;28;20033;-86
2022/12/29 06:08:11;;;;;;;6.38;3.00;;;10.90;99.90;;;;;;5055003;28;20032;-86
2022/12/29 06:10:37;;;;;;;5.28;2.92;;;10.90;99.90;;;;;;5055578;28;20028;-86
2022/12/29 06:13:05;;;;;;;5.13;3.08;;;10.90;99.90;;;;;;5054974;28;20059;-87
2022/12/29 06:15:34;;;;;;;3.38;2.53;;;10.90;99.90;;;;;;5055289;28;20048;-87
2022/12/29 06:18:00;;;;;;;5.60;2.78;;;11.00;99.90;;;;;;5055263;28;20044;-86
2022/12/29 06:20:26;;;;;;;5.25;2.80;;;11.00;99.90;;;;;;5055031;28;20451;-86
2022/12/29 06:22:51;;;;;;;6.10;3.00;;;11.00;99.90;;;;;;5055357;28;20033;-87
2022/12/29 06:25:17;;;;;;;6.50;3.08;;;11.00;99.90;;;;;;5054825;28;20506;-87
2022/12/29 06:27:44;;;;;;;6.22;3.20;;;11.10;99.90;;;;;;5055023;28;20049;-86
2022/12/29 06:30:10;;;;;;;4.80;2.97;;;11.10;99.90;;;;;;5055083;28;20091;-86
2022/12/29 06:32:36;;;;;;;4.22;2.97;;;11.00;99.90;;;;;;5054985;28;20104;-86
2022/12/29 06:35:03;;;;;;;5.15;2.70;;;11.00;99.90;;;;;;5055116;28;20115;-87
2022/12/29 06:37:29;;;;;;;6.95;3.40;;;11.10;99.90;;;;;;5054847;28;20020;-86
2022/12/29 06:39:55;;;;;;;5.78;2.97;;;11.10;99.90;;;;;;5054832;28;20033;-86
2022/12/29 06:42:21;;;;;;;5.22;3.15;;;11.10;99.90;;;;;;5054348;28;20029;-86
2022/12/29 06:44:46;;;;;;;4.55;2.88;;;11.20;99.90;;;;;;5054669;28;20037;-87
2022/12/29 06:47:12;;;;;;;5.32;2.70;;;11.10;99.90;;;;;;5054660;28;20481;-86
2022/12/29 06:49:38;;;;;;;6.20;3.03;;;11.10;99.90;;;;;;5054759;28;20401;-86
2022/12/29 06:52:04;;;;;;;5.35;3.38;;;11.20;99.90;;;;;;5054675;28;20028;-86
2022/12/29 06:54:30;;;;;;;6.47;2.85;;;11.20;99.90;;;;;;5054599;28;20086;-86
2022/12/29 06:56:56;;;;;;;4.95;2.85;;;11.10;99.90;;;;;;5054112;28;20548;-86
2022/12/29 06:59:22;;;;;;;5.47;3.20;;;11.20;99.90;;;;;;5054887;28;20032;-86
2022/12/29 07:01:48;;;;;;;4.95;2.72;;;11.10;99.90;;;;;;5054910;28;20021;-86
2022/12/29 07:04:14;;;;;;;6.43;3.63;;;11.10;99.90;;;;;;5053368;28;20040;-87
2022/12/29 07:06:40;;;;;;;5.85;2.90;;;11.10;99.90;;;;;;5054271;28;20029;-87
2022/12/29 07:09:06;;;;;;;3.97;2.58;;;11.10;99.90;;;;;;5054756;28;20033;-86
2022/12/29 07:11:33;;;;;;;5.65;3.10;;;11.10;99.90;;;;;;5053373;28;20017;-87
2022/12/29 07:13:59;;;;;;;4.78;2.90;;;11.00;99.90;;;;;;5054510;28;20374;-86
2022/12/29 07:16:24;;;;;;;3.97;2.45;;;11.10;99.90;;;;;;5054180;28;20036;-86
2022/12/29 07:18:51;;;;;;;6.95;3.53;;;11.00;99.90;;;;;;5053734;28;20025;-86
2022/12/29 07:21:17;;;;;;;4.53;2.50;;;11.00;99.90;;;;;;5053542;28;20386;-86
2022/12/29 07:23:43;;;;;;;6.80;3.00;;;11.10;99.90;;;;;;5054168;28;20071;-86
2022/12/29 07:26:12;;;;;;;7.72;2.78;;;11.10;99.90;;;;;;5053432;28;20056;-86
2022/12/29 07:28:38;;;;;;;8.48;2.83;;;11.10;99.90;;;;;;5053763;28;20037;-86
2022/12/29 07:31:05;;;;;;;4.93;3.13;;;11.10;99.90;;;;;;5051767;28;20489;-86
2022/12/29 07:33:31;;;;;;;6.18;2.90;;;11.20;99.90;;;;;;5054927;28;20029;-89
2022/12/29 07:35:58;;;;;;;5.95;2.97;;;11.10;99.90;;;;;;5054084;28;20029;-91
2022/12/29 07:38:23;;;;;;;4.80;2.72;;;11.30;99.90;;;;;;5055051;28;20074;-91
2022/12/29 07:40:49;;;;;;;5.18;2.85;;;11.30;99.90;;;;;;5056299;28;20033;-94
2022/12/29 07:43:15;;;;;;;5.75;2.72;;;11.30;99.90;;;;;;5055586;28;20591;-88
2022/12/29 07:45:40;;;;;;;5.72;3.40;;;11.30;99.90;;;;;;5053147;28;20044;-92
2022/12/29 07:48:09;;;;;;;4.88;2.75;;;11.40;99.90;;;;;;5055016;28;20037;-91
2022/12/29 07:50:36;;;;;;;6.30;2.67;;;11.50;99.90;;;;;;5054288;28;20393;-90
2022/12/29 07:53:02;;;;;;;6.80;3.15;;;11.60;99.90;;;;;;5054365;28;20504;-89
2022/12/29 07:55:29;;;;;;;5.03;2.95;;;11.60;99.90;;;;;;5053051;28;20116;-93
2022/12/29 07:57:55;;;;;;;5.40;2.97;;;11.80;99.90;;;;;;5053640;28;20139;-91
2022/12/29 08:00:22;;;;;;;6.32;2.90;;;12.00;99.90;;;;;;5053570;28;20434;-88
2022/12/29 08:02:48;;;;;;;5.50;2.97;;;12.10;99.90;;;;;;5052068;28;20420;-90
2022/12/29 08:05:15;;;;;;;5.07;2.80;;;12.20;99.90;;;;;;5053237;28;20037;-90
2022/12/29 08:07:43;;;;;;;4.90;2.58;;;12.60;99.90;;;;;;5053058;28;20526;-87
2022/12/29 08:10:09;;;;;;;5.97;2.95;;;15.40;99.90;;;;;;5053183;28;20090;-86
2022/12/29 08:12:35;;;;;;;4.38;3.20;;;16.60;99.90;;;;;;5052855;28;20024;-87
2022/12/29 08:15:01;;;;;;;6.43;2.70;;;16.30;99.90;;;;;;5052805;28;20060;-88
2022/12/29 08:17:26;;;;;;;6.07;3.17;;;17.30;99.90;;;;;;5052949;28;20047;-88
2022/12/29 08:19:52;;;;;;;5.60;3.08;;;16.80;99.90;;;;;;5053478;28;20036;-81
2022/12/29 08:22:17;;;;;;;5.65;3.65;;;15.50;99.90;;;;;;5051628;28;20490;-84
2022/12/29 08:24:43;;;;;;;4.88;2.92;;;15.30;99.90;;;;;;5052213;28;20091;-83
2022/12/29 08:27:08;;;;;;;5.47;2.92;;;15.30;99.90;;;;;;5052693;28;20024;-82
2022/12/29 08:29:34;;;;;;;5.50;2.90;;;15.80;99.90;;;;;;5052569;28;20049;-85
2022/12/29 08:32:00;;;;;;;4.63;2.90;;;16.40;99.90;;;;;;5051553;28;20818;-85
2022/12/29 08:34:25;;;;;;;6.35;2.60;;;16.90;99.90;;;;;;5052231;28;20029;-85
2022/12/29 08:36:51;;;;;;;5.90;2.90;;;18.00;99.90;;;;;;5052387;28;20020;-82
2022/12/29 08:39:17;;;;;;;7.05;3.00;;;15.60;99.90;;;;;;5052392;28;20501;-84
2022/12/29 08:41:42;;;;;;;8.55;3.38;;;14.20;99.90;;;;;;5045583;28;20056;-82
2022/12/29 08:44:08;;;;;;;5.85;3.17;;;13.60;99.90;;;;;;5039806;28;20033;-84
2022/12/29 08:46:33;;;;;;;7.18;3.25;;;13.20;99.90;;;;;;5039005;28;20026;-84
2022/12/29 08:48:59;;;;;;;4.95;2.90;;;13.50;99.90;;;;;;5042419;28;20047;-88
2022/12/29 08:51:25;;;;;;;5.07;2.70;;;13.70;99.90;;;;;;5039145;28;20103;-82
2022/12/29 08:53:50;;;;;;;4.80;3.00;;;13.90;99.90;;;;;;5039774;28;20033;-85
2022/12/29 08:56:16;;;;;;;5.32;2.97;;;14.20;99.90;;;;;;5042431;28;20021;-83
2022/12/29 08:58:42;;;;;;;5.40;2.78;;;17.60;99.90;;;;;;5044393;28;20032;-87
2022/12/29 09:01:09;;;;;;;4.45;2.58;;;20.30;99.90;;;;;;5052154;28;20107;-89
2022/12/29 09:03:34;;;;;;;5.45;3.00;;;20.50;99.90;;;;;;5052200;28;20049;-91
2022/12/29 09:06:00;;;;;;;7.25;3.05;;;20.50;99.90;;;;;;5047981;28;20076;-83
2022/12/29 09:08:26;;;;;;;5.75;2.90;;;17.90;99.90;;;;;;5042143;28;20024;-83
2022/12/29 09:10:51;;;;;;;3.53;2.70;;;17.00;99.90;;;;;;5039148;28;20083;-87
2022/12/29 09:13:18;;;;;;;4.88;2.60;;;19.30;99.90;;;;;;5042676;28;20513;-87
2022/12/29 09:15:45;;;;;;;5.88;3.00;;;21.10;99.90;;;;;;5040590;28;20029;-85
2022/12/29 09:18:11;;;;;;;4.60;2.92;;;22.00;99.90;;;;;;5043208;28;20104;-86
2022/12/29 09:20:37;;;;;;;4.25;2.50;;;22.30;99.90;;;;;;5040734;28;20029;-86
2022/12/29 09:23:03;;;;;;;5.47;3.20;;;22.90;99.90;;;;;;5041743;28;20047;-84
2022/12/29 09:25:29;;;;;;;5.40;2.70;;;23.20;99.90;;;;;;5031936;28;20048;-84
2022/12/29 09:27:55;;;;;;;4.88;2.78;;;22.40;99.90;;;;;;5041968;28;20029;-86
2022/12/29 09:30:23;;;;;;;4.93;2.95;;;22.30;99.90;;;;;;5050090;28;20040;-88
2022/12/29 09:32:49;;;;;;;5.45;2.90;;;23.20;99.90;;;;;;5032432;28;20022;-86
2022/12/29 09:35:16;;;;;;;6.28;3.67;;;24.20;99.90;;;;;;5045738;28;20459;-87
2022/12/29 09:37:42;;;;;;;5.50;3.10;;;23.40;99.90;;;;;;5047363;28;20070;-87
2022/12/29 09:40:31;;;;;;;7.60;2.60;;;23.60;99.90;;;;;;5051336;28;20037;-83
2022/12/29 09:43:32;;;;;;;4.70;2.67;;;22.30;99.90;;;;;;5050502;28;20025;-87
2022/12/29 09:46:03;;;;;;;5.30;3.08;;;21.80;99.90;;;;;;5060628;28;20044;-88
2022/12/29 09:48:41;;;;;;;5.57;2.70;;;21.50;99.90;;;;;;5053406;28;20107;-87
2022/12/29 09:51:14;;;;;;;4.00;2.97;;;21.70;99.90;;;;;;5051646;28;20036;-85
2022/12/29 09:53:49;;;;;;;4.60;3.03;;;24.50;99.90;;;;;;5050967;28;20033;-87
2022/12/29 09:56:19;;;;;;;5.10;3.15;;;24.70;99.90;;;;;;5051277;28;20041;-87
2022/12/29 09:59:02;;;;;;;5.00;2.80;;;26.20;99.90;;;;;;5051131;28;20057;-87
2022/12/29 10:02:04;;;;;;;4.38;2.53;;;26.70;99.90;;;;;;5047429;28;20402;-86
2022/12/29 10:04:30;;;;;;;4.40;2.60;;;27.40;99.90;;;;;;5050864;28;20393;-85
2022/12/29 10:07:04;;;;;;;5.50;2.92;;;25.80;99.90;;;;;;5051358;28;20025;-88
2022/12/29 10:09:36;;;;;;;6.53;2.72;;;25.70;99.90;;;;;;5050393;28;20061;-88
2022/12/29 10:12:27;;;;;;;5.28;2.70;;;27.40;99.90;;;;;;5050695;28;20067;-87
2022/12/29 10:15:18;;;;;;;5.80;3.05;;;26.70;99.90;;;;;;5009161;28;20041;-90
2022/12/29 10:17:55;;;;;;;3.75;3.03;;;27.50;99.90;;;;;;5008610;28;20055;-89
2022/12/29 10:21:15;;;;;;;4.07;2.80;;;27.10;99.90;;;;;;5001893;28;20039;-87
2022/12/29 10:23:47;;;;;;;4.72;2.75;;;25.70;99.90;;;;;;5000117;28;20045;-90
2022/12/29 10:26:27;;;;;;;5.30;2.95;;;23.70;99.90;;;;;;5009664;28;20038;-88
2022/12/29 10:29:04;;;;;;;4.00;2.40;;;24.70;99.90;;;;;;5008596;28;20068;-89
2022/12/29 10:31:43;;;;;;;4.25;2.70;;;21.80;99.90;;;;;;5009617;28;20022;-91
2022/12/29 10:34:44;;;;;;;4.15;2.75;;;23.30;99.90;;;;;;5009829;28;20105;-87
2022/12/29 10:37:31;;;;;;;6.78;3.03;;;24.00;99.90;;;;;;5008761;28;20026;-81
2022/12/29 10:39:58;;;;;;;6.90;2.72;;;23.60;99.90;;;;;;5006145;28;20049;-82
2022/12/29 10:42:34;;;;;;;4.78;2.72;;;19.10;99.90;;;;;;5000049;28;20585;-82
2022/12/29 10:45:00;;;;;;;6.25;3.20;;;18.00;99.90;;;;;;5008552;28;20072;-82
2022/12/29 10:47:31;;;;;;;9.63;3.30;;;18.80;99.90;;;;;;4993176;28;20026;-88
2022/12/29 10:49:58;;;;;;;3.28;2.60;;;21.10;99.90;;;;;;4993402;28;20110;-92
2022/12/29 10:52:26;;;;;;;4.80;2.90;;;23.70;99.90;;;;;;5022942;28;20037;-92
2022/12/29 10:55:03;;;;;;;6.55;2.85;;;23.40;99.90;;;;;;5035697;28;20040;-89
2022/12/29 10:57:37;;;;;;;8.07;2.90;;;22.30;99.90;;;;;;5036387;28;20100;-90
2022/12/29 11:00:16;;;;;;;8.60;2.83;;;21.80;99.90;;;;;;5044350;28;20493;-93
2022/12/29 11:03:15;;;;;;;9.25;2.40;;;18.80;99.90;;;;;;5038035;28;20021;-93
2022/12/29 11:05:50;;;;;;;6.07;3.30;;;18.00;99.90;;;;;;5046479;28;20143;-89
2022/12/29 11:08:30;;;;;;;5.75;2.90;;;18.00;99.90;;;;;;5034039;28;20028;-86
2022/12/29 11:11:09;;;;;;;4.32;2.95;;;18.10;99.90;;;;;;5043848;28;20033;-88
2022/12/29 11:13:48;;;;;;;6.10;2.58;;;18.00;99.90;;;;;;5054075;28;20029;-88
2022/12/29 11:16:13;;;;;;;4.72;2.17;;;17.50;99.90;;;;;;5053162;28;20120;-88
2022/12/29 11:18:45;;;;;;;5.78;2.97;;;17.20;99.90;;;;;;5055655;28;20112;-90
2022/12/29 11:21:41;;;;;;;4.45;2.90;;;17.10;99.90;;;;;;5045215;28;20078;-89
2022/12/29 11:24:28;;;;;;;4.18;2.55;;;16.70;99.90;;;;;;5054427;28;20114;-88
2022/12/29 11:26:57;;;;;;;7.65;3.10;;;16.20;99.90;;;;;;5044737;28;20470;-90
2022/12/29 11:29:29;;;;;;;5.80;2.33;;;16.00;99.90;;;;;;5055307;28;20025;-88
2022/12/29 11:31:58;;;;;;;6.35;2.67;;;15.60;99.90;;;;;;5051242;28;20519;-90
2022/12/29 11:34:32;;;;;;;9.35;2.70;;;15.70;99.90;;;;;;5053505;28;20037;-93
2022/12/29 11:37:03;;;;;;;4.85;2.78;;;16.00;99.90;;;;;;5053841;28;20020;-88
2022/12/29 11:39:46;;;;;;;4.05;2.03;;;16.00;99.90;;;;;;5054866;28;20433;-88
2022/12/29 11:42:18;;;;;;;5.30;2.63;;;16.00;99.90;;;;;;5054039;28;20060;-90
2022/12/29 11:44:47;;;;;;;5.82;2.42;;;16.10;99.90;;;;;;5053444;28;20485;-87
2022/12/29 11:47:30;;;;;;;6.15;2.20;;;15.90;99.90;;;;;;5053947;28;20504;-91
2022/12/29 11:50:03;;;;;;;4.38;2.55;;;16.10;99.90;;;;;;5054054;28;20037;-88
2022/12/29 11:52:34;;;;;;;8.30;2.75;;;16.20;99.90;;;;;;5049693;28;20033;-88
2022/12/29 11:55:03;;;;;;;6.57;2.55;;;16.40;99.90;;;;;;5052882;28;20776;-88
2022/12/29 11:57:32;;;;;;;2.55;1.83;;;16.30;99.90;;;;;;5052354;28;20483;-87
2022/12/29 12:00:00;;;;;;;6.13;2.58;;;16.30;99.90;;;;;;5053694;28;20028;-87
2022/12/29 12:02:44;;;;;;;4.97;2.80;;;17.00;99.90;;;;;;5053556;28;20070;-85
2022/12/29 12:05:41;;;;;;;6.97;3.15;;;16.50;99.90;;;;;;5052416;28;20033;-85
2022/12/29 12:08:12;;;;;;;3.88;2.35;;;16.10;99.90;;;;;;5032592;28;20022;-85
2022/12/29 12:11:15;;;;;;;8.07;2.90;;;16.10;99.90;;;;;;5038027;28;20498;-85
2022/12/29 12:14:17;;;;;;;4.65;1.70;;;16.30;99.90;;;;;;5020426;28;20056;-87
2022/12/29 12:16:50;;;;;;;9.10;2.50;;;15.90;99.90;;;;;;5033365;28;20030;-86
2022/12/29 12:19:28;;;;;;;8.15;2.67;;;16.00;99.90;;;;;;5037466;28;20401;-86
2022/12/29 12:22:00;;;;;;;9.15;2.65;;;15.70;99.90;;;;;;5049431;28;20029;-84
2022/12/29 12:24:49;;;;;;;6.95;2.83;;;16.00;99.90;;;;;;5032657;28;20056;-84
2022/12/29 12:27:28;;;;;;;5.65;3.05;;;15.80;99.90;;;;;;5033059;28;20093;-84
2022/12/29 12:30:09;;;;;;;6.63;2.90;;;15.70;99.90;;;;;;5032653;28;20402;-84
2022/12/29 12:33:25;;;;;;;5.82;2.45;;;15.70;99.90;;;;;;5032347;28;20026;-88
2022/12/29 12:36:24;;;;;;;6.95;3.00;;;15.50;99.90;;;;;;4993865;28;20038;-86
2022/12/29 12:39:09;;;;;;;4.28;2.20;;;15.40;99.90;;;;;;5011701;28;20104;-87
2022/12/29 12:41:50;;;;;;;7.18;3.30;;;15.20;99.90;;;;;;4998533;28;20136;-87
2022/12/29 12:44:29;;;;;;;12.32;4.05;;;15.30;99.90;;;;;;5010753;28;20056;-86
2022/12/29 12:47:43;;;;;;;9.70;3.53;;;15.10;99.90;;;;;;5010221;28;20045;-84
2022/12/29 12:50:41;;;;;;;4.38;2.53;;;15.40;99.90;;;;;;4990800;28;20019;-86
2022/12/29 12:53:50;;;;;;;8.57;3.38;;;15.80;99.90;;;;;;4991344;28;20098;-85
2022/12/29 12:56:42;;;;;;;7.82;3.40;;;15.80;99.90;;;;;;4952060;29;20078;-85
2022/12/29 12:59:26;;;;;;;10.13;3.17;;;16.20;99.90;;;;;;4951781;29;20512;-85
2022/12/29 13:02:07;;;;;;;4.85;2.60;;;15.80;99.90;;;;;;4951613;29;20031;-90
2022/12/29 13:04:45;;;;;;;7.13;2.83;;;15.50;99.90;;;;;;4952587;29;20435;-87
2022/12/29 13:07:48;;;;;;;7.55;3.30;;;15.20;99.90;;;;;;4966902;28;20050;-88
2022/12/29 13:10:30;;;;;;;2.92;2.03;;;15.30;99.90;;;;;;4958894;28;20093;-86
2022/12/29 13:13:14;;;;;;;9.35;3.22;;;15.40;99.90;;;;;;4971581;28;20039;-87
2022/12/29 13:15:57;;;;;;;6.75;2.92;;;15.60;99.90;;;;;;4951683;29;20038;-88
2022/12/29 13:19:01;;;;;;;7.15;3.35;;;15.90;99.90;;;;;;4951791;29;20035;-87
2022/12/29 13:22:01;;;;;;;8.68;3.25;;;15.20;99.90;;;;;;4952334;29;20066;-87
2022/12/29 13:24:36;;;;;;;8.38;3.25;;;15.20;99.90;;;;;;4963525;28;20493;-87
2022/12/29 13:27:31;;;;;;;6.82;3.28;;;15.40;99.90;;;;;;4974099;28;20128;-87
2022/12/29 13:30:10;;;;;;;5.55;2.35;;;15.50;99.90;;;;;;4990698;28;20034;-87
2022/12/29 13:33:19;;;;;;;6.53;3.67;;;15.30;99.90;;;;;;5027319;28;20040;-87
2022/12/29 13:36:00;;;;;;;7.88;3.03;;;15.50;99.90;;;;;;5037091;28;20028;-88
2022/12/29 13:38:50;;;;;;;7.97;3.22;;;15.70;99.90;;;;;;5052103;28;20390;-87
2022/12/29 13:41:30;;;;;;;6.63;2.53;;;15.80;99.90;;;;;;5045854;28;20040;-87